Time,TemperatureF,DewpointF,PressureIn,WindDirection,WindDirectionDegrees,WindSpeedMPH,WindSpeedGustMPH,Humidity,HourlyPrecipIn,Conditions,Clouds,dailyrainin,SoftwareType,DateUTC
2013-12-18 00:05:00,29.7,28.0,29.97,ESE,123,1.0,3.0,92,0.00,,,0.00,weatherlink.com 1.10,2013-12-18 05:05:00,
2013-12-18 00:20:00,29.5,28.0,29.97,West,263,0.0,2.0,92,0.00,,,0.00,weatherlink.com 1.10,2013-12-18 05:20:00,
2013-12-18 00:35:00,28.9,27.0,29.97,South,170,0.0,3.0,92,0.00,,,0.00,weatherlink.com 1.10,2013-12-18 05:35:00,
2013-12-18 00:50:00,28.4,27.0,29.97,NNW,346,0.0,4.0,93,0.00,,,0.00,weatherlink.com 1.10,2013-12-18 05:50:00,
2013-12-18 01:05:00,28.4,27.0,29.97,ESE,111,0.0,2.0,94,0.00,,,0.00,weatherlink.com 1.10,2013-12-18 06:05:00,
2013-12-18 01:20:00,28.6,27.0,29.97,ESE,116,0.0,4.0,94,0.00,,,0.00,weatherlink.com 1.10,2013-12-18 06:20:00,
2013-12-18 01:35:00,28.4,27.0,29.98,NNW,330,0.0,2.0,93,0.00,,,0.00,weatherlink.com 1.10,2013-12-18 06:35:00,
2013-12-18 01:51:00,27.6,26.0,29.99,NNW,330,0.0,0.0,92,0.00,,,0.00,weatherlink.com 1.10,2013-12-18 06:51:00,
2013-12-18 02:06:00,27.3,26.0,29.99,NNW,330,0.0,0.0,94,0.00,,,0.00,weatherlink.com 1.10,2013-12-18 07:06:00,
2013-12-18 02:21:00,27.6,26.0,29.99,NNW,329,0.0,2.0,94,0.00,,,0.00,weatherlink.com 1.10,2013-12-18 07:21:00,
2013-12-18 02:36:00,29.3,27.0,30.00,NW,318,1.0,5.0,91,0.00,,,0.00,weatherlink.com 1.10,2013-12-18 07:36:00,
2013-12-18 02:51:00,32.0,27.0,30.00,NW,309,0.0,4.0,81,0.00,,,0.00,weatherlink.com 1.10,2013-12-18 07:51:00,
2013-12-18 03:06:00,32.7,26.0,30.01,NW,318,2.0,5.0,77,0.00,,,0.00,weatherlink.com 1.10,2013-12-18 08:06:00,
2013-12-18 03:21:00,34.7,25.0,30.02,NW,317,4.0,18.0,68,0.00,,,0.00,weatherlink.com 1.10,2013-12-18 08:21:00,
2013-12-18 03:36:00,34.6,25.0,30.02,NNW,332,7.0,14.0,68,0.00,,,0.00,weatherlink.com 1.10,2013-12-18 08:36:00,
2013-12-18 03:51:00,34.4,25.0,30.03,WNW,289,11.0,14.0,69,0.00,,,0.00,weatherlink.com 1.10,2013-12-18 08:51:00,
2013-12-18 04:06:00,34.2,25.0,30.03,NW,310,6.0,11.0,70,0.00,,,0.00,weatherlink.com 1.10,2013-12-18 09:06:00,
2013-12-18 04:21:00,34.0,26.0,30.04,NW,319,7.0,16.0,71,0.00,,,0.00,weatherlink.com 1.10,2013-12-18 09:21:00,
2013-12-18 04:36:00,33.5,25.0,30.05,NW,306,9.0,19.0,70,0.00,,,0.00,weatherlink.com 1.10,2013-12-18 09:36:00,
2013-12-18 04:51:00,33.0,23.0,30.06,NW,308,10.0,11.0,68,0.00,,,0.00,weatherlink.com 1.10,2013-12-18 09:51:00,
2013-12-18 05:06:00,32.6,22.0,30.07,WNW,294,1.0,13.0,66,0.00,,,0.00,weatherlink.com 1.10,2013-12-18 10:06:00,
2013-12-18 05:21:00,32.4,22.0,30.08,NW,318,0.0,13.0,66,0.00,,,0.00,weatherlink.com 1.10,2013-12-18 10:21:00,
2013-12-18 05:36:00,32.4,21.0,30.08,NW,325,3.0,10.0,64,0.00,,,0.00,weatherlink.com 1.10,2013-12-18 10:36:00,
2013-12-18 05:51:00,32.4,21.0,30.08,WNW,302,5.0,9.0,63,0.00,,,0.00,weatherlink.com 1.10,2013-12-18 10:51:00,
2013-12-18 06:06:00,32.1,21.0,30.08,NNW,332,3.0,10.0,63,0.00,,,0.00,weatherlink.com 1.10,2013-12-18 11:06:00,
2013-12-18 06:21:00,32.0,20.0,30.09,NW,315,3.0,9.0,62,0.00,,,0.00,weatherlink.com 1.10,2013-12-18 11:21:00,
2013-12-18 06:36:00,32.1,20.0,30.09,NW,317,0.0,7.0,62,0.00,,,0.00,weatherlink.com 1.10,2013-12-18 11:36:00,
2013-12-18 06:51:00,32.0,21.0,30.10,NW,306,2.0,6.0,63,0.00,,,0.00,weatherlink.com 1.10,2013-12-18 11:51:00,
2013-12-18 07:06:00,32.1,21.0,30.11,WNW,294,2.0,10.0,63,0.00,,,0.00,weatherlink.com 1.10,2013-12-18 12:06:00,
2013-12-18 07:21:00,32.2,21.0,30.11,WNW,296,3.0,6.0,64,0.00,,,0.00,weatherlink.com 1.10,2013-12-18 12:21:00,
2013-12-18 07:36:00,32.1,21.0,30.11,NW,307,1.0,7.0,65,0.00,,,0.00,weatherlink.com 1.10,2013-12-18 12:36:00,
2013-12-18 07:52:00,32.2,22.0,30.12,NW,317,6.0,13.0,65,0.00,,,0.00,weatherlink.com 1.10,2013-12-18 12:52:00,
2013-12-18 08:06:00,32.0,22.0,30.12,NW,308,4.0,8.0,68,0.00,,,0.00,weatherlink.com 1.10,2013-12-18 13:06:00,
2013-12-18 08:22:00,31.8,23.0,30.13,NW,320,1.0,7.0,69,0.00,,,0.00,weatherlink.com 1.10,2013-12-18 13:22:00,
2013-12-18 08:37:00,32.0,22.0,30.13,NW,320,0.0,3.0,68,0.00,,,0.00,weatherlink.com 1.10,2013-12-18 13:37:00,
2013-12-18 08:52:00,32.3,22.0,30.13,WNW,285,2.0,5.0,66,0.00,,,0.00,weatherlink.com 1.10,2013-12-18 13:52:00,
2013-12-18 09:07:00,33.0,22.0,30.14,West,279,5.0,5.0,64,0.00,,,0.00,weatherlink.com 1.10,2013-12-18 14:07:00,
2013-12-18 09:22:00,34.0,22.0,30.14,WSW,258,1.0,11.0,61,0.00,,,0.00,weatherlink.com 1.10,2013-12-18 14:22:00,
2013-12-18 09:37:00,34.5,21.0,30.14,NNW,334,5.0,10.0,57,0.00,,,0.00,weatherlink.com 1.10,2013-12-18 14:37:00,
2013-12-18 09:52:00,35.3,21.0,30.14,NNW,335,6.0,16.0,56,0.00,,,0.00,weatherlink.com 1.10,2013-12-18 14:52:00,
2013-12-18 10:07:00,34.6,21.0,30.14,NW,314,6.0,16.0,57,0.00,,,0.00,weatherlink.com 1.10,2013-12-18 15:07:00,
2013-12-18 10:22:00,34.3,21.0,30.14,WNW,300,4.0,16.0,58,0.00,,,0.00,weatherlink.com 1.10,2013-12-18 15:22:00,
2013-12-18 10:37:00,34.4,21.0,30.14,NW,306,9.0,14.0,59,0.00,,,0.00,weatherlink.com 1.10,2013-12-18 15:37:00,
2013-12-18 10:52:00,34.5,21.0,30.14,NW,317,8.0,14.0,58,0.00,,,0.00,weatherlink.com 1.10,2013-12-18 15:52:00,
2013-12-18 11:07:00,35.0,22.0,30.13,WNW,300,7.0,11.0,59,0.00,,,0.00,weatherlink.com 1.10,2013-12-18 16:07:00,
2013-12-18 11:22:00,35.2,22.0,30.13,NNW,329,4.0,11.0,59,0.00,,,0.00,weatherlink.com 1.10,2013-12-18 16:22:00,
2013-12-18 11:37:00,35.6,22.0,30.13,NW,310,1.0,8.0,57,0.00,,,0.00,weatherlink.com 1.10,2013-12-18 16:37:00,
2013-12-18 11:52:00,35.4,21.0,30.12,NW,320,3.0,8.0,56,0.00,,,0.00,weatherlink.com 1.10,2013-12-18 16:52:00,
2013-12-18 12:07:00,35.4,21.0,30.12,WNW,299,4.0,9.0,57,0.00,,,0.00,weatherlink.com 1.10,2013-12-18 17:07:00,
2013-12-18 12:22:00,35.8,21.0,30.12,NNW,338,3.0,8.0,56,0.00,,,0.00,weatherlink.com 1.10,2013-12-18 17:22:00,
2013-12-18 12:37:00,36.7,23.0,30.12,NW,307,5.0,8.0,57,0.00,,,0.00,weatherlink.com 1.10,2013-12-18 17:37:00,
2013-12-18 12:52:00,37.7,22.0,30.12,NW,316,4.0,7.0,54,0.00,,,0.00,weatherlink.com 1.10,2013-12-18 17:52:00,
2013-12-18 13:07:00,37.9,22.0,30.11,WNW,283,3.0,8.0,53,0.00,,,0.00,weatherlink.com 1.10,2013-12-18 18:07:00,
2013-12-18 13:22:00,38.2,23.0,30.11,North,360,4.0,9.0,54,0.00,,,0.00,weatherlink.com 1.10,2013-12-18 18:22:00,
2013-12-18 13:37:00,38.8,23.0,30.11,West,279,8.0,8.0,53,0.00,,,0.00,weatherlink.com 1.10,2013-12-18 18:37:00,
2013-12-18 13:52:00,39.3,22.0,30.11,NW,311,4.0,9.0,51,0.00,,,0.00,weatherlink.com 1.10,2013-12-18 18:52:00,
2013-12-18 14:07:00,38.4,22.0,30.11,West,264,0.0,6.0,53,0.00,,,0.00,weatherlink.com 1.10,2013-12-18 19:07:00,
2013-12-18 14:22:00,38.6,22.0,30.11,NW,321,3.0,8.0,52,0.00,,,0.00,weatherlink.com 1.10,2013-12-18 19:22:00,
2013-12-18 14:37:00,39.1,22.0,30.11,NW,316,4.0,8.0,51,0.00,,,0.00,weatherlink.com 1.10,2013-12-18 19:37:00,
2013-12-18 14:52:00,38.9,22.0,30.11,WNW,300,1.0,7.0,52,0.00,,,0.00,weatherlink.com 1.10,2013-12-18 19:52:00,
2013-12-18 15:07:00,38.9,23.0,30.12,NW,317,0.0,6.0,53,0.00,,,0.00,weatherlink.com 1.10,2013-12-18 20:07:00,
2013-12-18 15:22:00,38.6,24.0,30.13,NNW,330,3.0,5.0,55,0.00,,,0.00,weatherlink.com 1.10,2013-12-18 20:22:00,
2013-12-18 15:37:00,38.4,23.0,30.13,WNW,299,0.0,5.0,55,0.00,,,0.00,weatherlink.com 1.10,2013-12-18 20:37:00,
2013-12-18 15:52:00,38.3,23.0,30.13,NW,326,0.0,3.0,55,0.00,,,0.00,weatherlink.com 1.10,2013-12-18 20:52:00,
2013-12-18 16:07:00,38.1,23.0,30.14,NNW,331,1.0,6.0,56,0.00,,,0.00,weatherlink.com 1.10,2013-12-18 21:07:00,
2013-12-18 16:22:00,37.6,23.0,30.14,NW,314,2.0,5.0,57,0.00,,,0.00,weatherlink.com 1.10,2013-12-18 21:22:00,
2013-12-18 16:37:00,36.9,23.0,30.13,NW,320,1.0,4.0,58,0.00,,,0.00,weatherlink.com 1.10,2013-12-18 21:37:00,
2013-12-18 16:52:00,36.4,23.0,30.14,NW,326,0.0,4.0,59,0.00,,,0.00,weatherlink.com 1.10,2013-12-18 21:52:00,
2013-12-18 17:07:00,35.7,23.0,30.14,NNW,333,0.0,3.0,61,0.00,,,0.00,weatherlink.com 1.10,2013-12-18 22:07:00,
2013-12-18 17:22:00,34.4,23.0,30.14,NNW,333,0.0,0.0,64,0.00,,,0.00,weatherlink.com 1.10,2013-12-18 22:22:00,
2013-12-18 17:37:00,32.5,23.0,30.15,NNW,333,1.0,2.0,68,0.00,,,0.00,weatherlink.com 1.10,2013-12-18 22:37:00,
2013-12-18 17:52:00,34.4,23.0,30.16,NW,312,3.0,8.0,63,0.00,,,0.00,weatherlink.com 1.10,2013-12-18 22:52:00,
2013-12-18 18:07:00,34.8,23.0,30.16,NW,310,2.0,6.0,62,0.00,,,0.00,weatherlink.com 1.10,2013-12-18 23:07:00,
2013-12-18 18:22:00,34.6,23.0,30.16,NW,318,0.0,5.0,62,0.00,,,0.00,weatherlink.com 1.10,2013-12-18 23:22:00,
2013-12-18 18:37:00,34.4,22.0,30.16,NW,317,0.0,5.0,62,0.00,,,0.00,weatherlink.com 1.10,2013-12-18 23:37:00,
2013-12-18 18:52:00,33.3,23.0,30.17,NW,320,1.0,3.0,65,0.00,,,0.00,weatherlink.com 1.10,2013-12-18 23:52:00,
2013-12-18 19:07:00,31.6,22.0,30.17,South,170,0.0,3.0,69,0.00,,,0.00,weatherlink.com 1.10,2013-12-19 00:07:00,
2013-12-18 19:23:00,30.6,23.0,30.18,NW,320,0.0,2.0,72,0.00,,,0.00,weatherlink.com 1.10,2013-12-19 00:23:00,
2013-12-18 19:38:00,29.3,22.0,30.17,NW,320,0.0,0.0,75,0.00,,,0.00,weatherlink.com 1.10,2013-12-19 00:38:00,
2013-12-18 19:53:00,28.3,22.0,30.17,NW,320,0.0,0.0,78,0.00,,,0.00,weatherlink.com 1.10,2013-12-19 00:53:00,
2013-12-18 20:08:00,27.2,22.0,30.17,NW,320,0.0,0.0,80,0.00,,,0.00,weatherlink.com 1.10,2013-12-19 01:08:00,
2013-12-18 20:23:00,26.8,22.0,30.17,NW,324,0.0,0.0,82,0.00,,,0.00,weatherlink.com 1.10,2013-12-19 01:23:00,
2013-12-18 20:38:00,26.1,22.0,30.17,NW,324,0.0,0.0,83,0.00,,,0.00,weatherlink.com 1.10,2013-12-19 01:38:00,
2013-12-18 20:53:00,25.7,22.0,30.16,NW,324,0.0,0.0,84,0.00,,,0.00,weatherlink.com 1.10,2013-12-19 01:53:00,
2013-12-18 21:08:00,25.2,21.0,30.16,NW,324,0.0,0.0,85,0.00,,,0.00,weatherlink.com 1.10,2013-12-19 02:08:00,
2013-12-18 21:23:00,24.8,21.0,30.16,NW,324,0.0,0.0,86,0.00,,,0.00,weatherlink.com 1.10,2013-12-19 02:23:00,
2013-12-18 21:38:00,24.3,21.0,30.16,NW,324,0.0,0.0,87,0.00,,,0.00,weatherlink.com 1.10,2013-12-19 02:38:00,
2013-12-18 21:53:00,24.1,21.0,30.16,NW,324,0.0,0.0,88,0.00,,,0.00,weatherlink.com 1.10,2013-12-19 02:53:00,
2013-12-18 22:08:00,23.6,21.0,30.16,NW,324,0.0,0.0,88,0.00,,,0.00,weatherlink.com 1.10,2013-12-19 03:08:00,
2013-12-18 22:23:00,23.6,21.0,30.16,NW,324,0.0,0.0,90,0.00,,,0.00,weatherlink.com 1.10,2013-12-19 03:23:00,
2013-12-18 22:38:00,23.3,21.0,30.16,NW,324,0.0,0.0,89,0.00,,,0.00,weatherlink.com 1.10,2013-12-19 03:38:00,
2013-12-18 22:53:00,23.0,21.0,30.16,NW,324,0.0,0.0,90,0.00,,,0.00,weatherlink.com 1.10,2013-12-19 03:53:00,
2013-12-18 23:08:00,22.7,20.0,30.16,NW,324,0.0,0.0,90,0.00,,,0.00,weatherlink.com 1.10,2013-12-19 04:08:00,
2013-12-18 23:23:00,22.5,20.0,30.15,NW,324,0.0,0.0,91,0.00,,,0.00,weatherlink.com 1.10,2013-12-19 04:23:00,
2013-12-18 23:38:00,22.2,20.0,30.15,NW,324,0.0,0.0,90,0.00,,,0.00,weatherlink.com 1.10,2013-12-19 04:38:00,
2013-12-18 23:53:00,22.0,20.0,30.15,NW,324,0.0,0.0,91,0.00,,,0.00,weatherlink.com 1.10,2013-12-19 04:53:00,